createdAt,value
2023-05-05T00:01:58.006Z,20.87
2023-05-05T00:04:26.506Z,21.00
2023-05-05T00:06:55.082Z,20.89
2023-05-05T00:09:23.738Z,20.76
2023-05-05T00:11:52.348Z,20.80
2023-05-05T00:14:20.700Z,20.86
2023-05-05T00:16:49.314Z,20.70
2023-05-05T00:19:17.669Z,20.52
2023-05-05T00:21:46.258Z,20.76
2023-05-05T00:24:14.388Z,20.54
2023-05-05T00:26:42.782Z,20.53
2023-05-05T00:29:10.956Z,20.55
2023-05-05T00:31:39.502Z,20.42
2023-05-05T00:34:07.652Z,20.38
2023-05-05T00:36:36.102Z,20.70
2023-05-05T00:39:04.073Z,20.44
2023-05-05T00:41:32.502Z,20.50
2023-05-05T00:44:00.586Z,20.56
2023-05-05T00:46:31.058Z,20.56
2023-05-05T00:48:59.947Z,20.62
2023-05-05T00:51:29.263Z,20.65
2023-05-05T00:53:57.518Z,20.63
2023-05-05T00:56:27.607Z,20.32
2023-05-05T00:58:55.724Z,20.38
2023-05-05T01:01:24.309Z,20.23
2023-05-05T01:03:52.566Z,20.35
2023-05-05T01:06:58.974Z,20.44
2023-05-05T01:09:29.922Z,20.59
2023-05-05T01:12:22.518Z,20.34
2023-05-05T01:15:29.311Z,20.28
2023-05-05T01:18:04.635Z,20.26
2023-05-05T01:21:02.394Z,20.15
2023-05-05T01:24:00.752Z,20.27
2023-05-05T01:26:55.989Z,20.30
2023-05-05T01:30:09.497Z,20.18
2023-05-05T01:32:47.672Z,19.93
2023-05-05T01:35:21.651Z,20.06
2023-05-05T01:37:59.518Z,19.80
2023-05-05T01:40:32.653Z,19.80
2023-05-05T01:43:05.087Z,19.79
2023-05-05T01:45:38.609Z,19.85
2023-05-05T01:48:08.608Z,19.88
2023-05-05T01:50:37.764Z,19.93
2023-05-05T01:53:07.685Z,19.84
2023-05-05T01:55:37.510Z,19.79
2023-05-05T01:58:08.368Z,19.78
2023-05-05T02:00:37.639Z,19.85
2023-05-05T02:03:08.299Z,19.80
2023-05-05T02:05:40.065Z,19.65
2023-05-05T02:08:10.064Z,19.61
2023-05-05T02:10:43.089Z,19.81
2023-05-05T02:13:13.458Z,19.78
2023-05-05T02:15:44.459Z,19.71
2023-05-05T02:18:13.298Z,19.52
2023-05-05T02:20:41.873Z,19.51
2023-05-05T02:23:10.233Z,19.45
2023-05-05T02:25:45.635Z,19.58
2023-05-05T02:28:33.768Z,19.54
2023-05-05T02:31:06.232Z,19.55
2023-05-05T02:33:37.253Z,19.45
2023-05-05T02:36:28.614Z,19.45
2023-05-05T02:39:13.097Z,19.53
2023-05-05T02:41:45.456Z,19.57
2023-05-05T02:44:25.263Z,19.37
2023-05-05T02:46:55.203Z,19.30
2023-05-05T02:49:24.846Z,19.40
2023-05-05T02:51:58.738Z,19.27
2023-05-05T02:54:31.972Z,19.29
2023-05-05T02:57:02.044Z,19.35
2023-05-05T02:59:47.644Z,19.35
2023-05-05T03:02:25.129Z,19.15
2023-05-05T03:05:17.591Z,19.10
2023-05-05T03:07:59.941Z,19.28
2023-05-05T03:10:35.139Z,19.42
2023-05-05T03:13:10.249Z,19.35
2023-05-05T03:15:48.645Z,19.31
2023-05-05T03:18:22.816Z,19.38
2023-05-05T03:20:57.683Z,19.13
2023-05-05T03:23:26.650Z,19.32
2023-05-05T03:26:00.128Z,19.34
2023-05-05T03:28:39.607Z,19.39
2023-05-05T03:31:22.318Z,19.39
2023-05-05T03:33:55.452Z,18.98
2023-05-05T03:36:29.424Z,19.10
2023-05-05T03:39:00.249Z,19.13
2023-05-05T03:41:32.079Z,19.09
2023-05-05T03:44:01.332Z,19.06
2023-05-05T03:46:29.404Z,19.16
2023-05-05T03:48:57.801Z,19.00
2023-05-05T03:51:28.443Z,19.20
2023-05-05T03:53:57.852Z,19.13
2023-05-05T03:56:25.931Z,18.94
2023-05-05T03:58:54.289Z,19.16
2023-05-05T04:01:22.342Z,19.06
2023-05-05T04:03:50.895Z,19.20
2023-05-05T04:06:18.936Z,19.03
2023-05-05T04:08:47.788Z,19.14
2023-05-05T04:11:16.487Z,19.09
2023-05-05T04:13:44.967Z,19.26
2023-05-05T04:16:13.495Z,19.35
2023-05-05T04:18:42.015Z,19.33
2023-05-05T04:21:10.718Z,19.28
2023-05-05T04:23:40.756Z,19.10
2023-05-05T04:26:08.824Z,19.21
2023-05-05T04:28:37.776Z,19.16
2023-05-05T04:31:06.280Z,19.22
2023-05-05T04:33:38.220Z,19.12
2023-05-05T04:36:07.210Z,19.21
2023-05-05T04:38:35.787Z,19.25
2023-05-05T04:41:06.702Z,19.29
2023-05-05T04:43:36.516Z,19.50
2023-05-05T04:46:04.708Z,19.54
2023-05-05T04:48:38.165Z,19.51
2023-05-05T04:51:07.164Z,19.62
2023-05-05T04:53:36.322Z,19.53
2023-05-05T04:56:04.513Z,19.52
2023-05-05T04:58:33.475Z,19.65
2023-05-05T05:01:01.442Z,19.75
2023-05-05T05:03:29.928Z,19.83
2023-05-05T05:05:58.003Z,19.76
2023-05-05T05:08:26.493Z,19.69
2023-05-05T05:10:54.461Z,19.95
2023-05-05T05:13:22.995Z,19.85
2023-05-05T05:15:52.204Z,19.95
2023-05-05T05:18:20.541Z,20.19
2023-05-05T05:20:50.391Z,20.12
2023-05-05T05:23:19.947Z,20.37
2023-05-05T05:25:48.494Z,20.53
2023-05-05T05:28:19.728Z,20.35
2023-05-05T05:30:52.948Z,20.32
2023-05-05T05:33:21.690Z,20.31
2023-05-05T05:35:50.583Z,20.40
2023-05-05T05:38:21.417Z,20.19
2023-05-05T05:40:52.431Z,20.77
2023-05-05T05:43:21.451Z,20.72
2023-05-05T05:45:49.813Z,20.55
2023-05-05T05:48:18.610Z,20.73
2023-05-05T05:50:46.759Z,20.98
2023-05-05T05:53:15.633Z,21.23
2023-05-05T05:55:46.688Z,21.60
2023-05-05T05:58:17.620Z,21.55
2023-05-05T06:00:46.870Z,22.09
2023-05-05T06:03:15.513Z,22.62
2023-05-05T06:05:46.622Z,22.90
2023-05-05T06:08:16.122Z,22.94
2023-05-05T06:10:49.010Z,23.10
2023-05-05T06:13:20.571Z,22.94
2023-05-05T06:15:51.379Z,22.85
2023-05-05T06:18:19.909Z,22.80
2023-05-05T06:20:51.260Z,22.27
2023-05-05T06:23:21.480Z,22.84
2023-05-05T06:25:55.839Z,22.88
2023-05-05T06:28:24.275Z,23.04
2023-05-05T06:30:52.885Z,22.94
2023-05-05T06:33:21.250Z,22.82
2023-05-05T06:35:49.745Z,23.23
2023-05-05T06:38:18.082Z,22.94
2023-05-05T06:40:49.728Z,22.21
2023-05-05T06:43:18.518Z,23.12
2023-05-05T06:45:53.827Z,22.59
2023-05-05T06:48:22.419Z,22.06
2023-05-05T06:50:50.450Z,22.91
2023-05-05T06:53:18.821Z,22.29
2023-05-05T06:55:47.664Z,23.04
2023-05-05T06:58:16.025Z,22.69
2023-05-05T07:00:44.145Z,22.67
2023-05-05T07:03:12.607Z,23.09
2023-05-05T07:05:40.661Z,22.68
2023-05-05T07:08:11.560Z,22.64
2023-05-05T07:10:39.698Z,22.52
2023-05-05T07:13:08.672Z,23.00
2023-05-05T07:15:36.818Z,22.82
2023-05-05T07:18:05.376Z,23.23
2023-05-05T07:20:33.484Z,23.14
2023-05-05T07:23:01.777Z,22.79
2023-05-05T07:25:29.763Z,22.70
2023-05-05T07:27:58.633Z,22.82
2023-05-05T07:30:26.867Z,22.49
2023-05-05T07:32:55.561Z,23.40
2023-05-05T07:35:23.824Z,23.03
2023-05-05T07:37:52.323Z,23.12
2023-05-05T07:40:20.775Z,23.60
2023-05-05T07:42:49.090Z,23.32
2023-05-05T07:45:17.074Z,23.39
2023-05-05T07:47:45.464Z,22.96
2023-05-05T07:50:13.719Z,23.37
2023-05-05T07:52:48.385Z,23.39
2023-05-05T07:55:19.899Z,23.41
2023-05-05T07:57:49.845Z,23.32
2023-05-05T08:00:19.691Z,23.31
2023-05-05T08:02:48.823Z,23.92
2023-05-05T08:05:17.098Z,23.36
2023-05-05T08:07:45.655Z,23.87
2023-05-05T08:10:13.808Z,23.66
2023-05-05T08:12:42.757Z,24.00
2023-05-05T08:15:11.204Z,24.79
2023-05-05T08:17:48.163Z,24.07
2023-05-05T08:20:18.190Z,23.87
2023-05-05T08:22:48.422Z,23.98
2023-05-05T08:25:16.458Z,23.59
2023-05-05T08:27:45.053Z,24.37
2023-05-05T08:30:13.576Z,25.06
2023-05-05T08:32:41.976Z,25.25
2023-05-05T08:35:10.399Z,24.75
2023-05-05T08:37:38.958Z,24.39
2023-05-05T08:40:07.682Z,24.23
2023-05-05T08:42:38.487Z,24.69
2023-05-05T08:45:09.474Z,24.97
2023-05-05T08:47:39.390Z,24.88
2023-05-05T08:50:11.180Z,24.23
2023-05-05T08:52:44.674Z,24.41
2023-05-05T08:55:14.863Z,24.06
2023-05-05T08:58:05.405Z,25.00
2023-05-05T09:00:34.024Z,24.87
2023-05-05T09:03:02.792Z,25.01
2023-05-05T09:05:30.887Z,24.92
2023-05-05T09:07:59.258Z,25.15
2023-05-05T09:10:31.514Z,24.99
2023-05-05T09:13:01.270Z,25.10
2023-05-05T09:15:29.243Z,25.59
2023-05-05T09:18:00.824Z,25.82
2023-05-05T09:20:37.208Z,26.18
2023-05-05T09:23:19.870Z,25.88
2023-05-05T09:26:02.782Z,25.48
2023-05-05T09:28:32.080Z,24.85
2023-05-05T09:31:14.252Z,25.58
2023-05-05T09:33:43.514Z,25.60
2023-05-05T09:36:12.449Z,26.37
2023-05-05T09:38:40.748Z,25.53
2023-05-05T09:41:08.699Z,25.43
2023-05-05T09:43:52.133Z,26.02
2023-05-05T09:46:20.280Z,25.55
2023-05-05T09:48:48.633Z,25.83
2023-05-05T09:51:16.754Z,27.17
2023-05-05T09:53:45.289Z,25.78
2023-05-05T09:56:13.257Z,26.37
2023-05-05T09:58:42.519Z,26.21
2023-05-05T10:01:23.092Z,26.43
2023-05-05T10:03:54.917Z,25.88
2023-05-05T10:06:41.326Z,26.12
2023-05-05T10:09:10.007Z,26.66
2023-05-05T10:11:40.045Z,26.39
2023-05-05T10:14:08.982Z,26.51
2023-05-05T10:16:43.349Z,27.62
2023-05-05T10:19:14.506Z,27.33
2023-05-05T10:21:49.719Z,27.75
2023-05-05T10:24:24.985Z,27.10
2023-05-05T10:26:56.295Z,27.28
2023-05-05T10:29:37.040Z,27.12
2023-05-05T10:32:30.181Z,27.36
2023-05-05T10:35:01.814Z,27.44
2023-05-05T10:37:30.814Z,28.13
2023-05-05T10:39:59.502Z,27.64
2023-05-05T10:42:28.010Z,27.19
2023-05-05T10:44:56.725Z,27.12
2023-05-05T10:47:26.016Z,26.67
2023-05-05T10:50:07.811Z,27.80
2023-05-05T10:52:44.633Z,26.89
2023-05-05T10:55:24.663Z,27.80
2023-05-05T10:57:54.304Z,27.56
2023-05-05T11:00:41.260Z,27.41
2023-05-05T11:03:18.459Z,27.91
2023-05-05T11:06:04.913Z,27.44
2023-05-05T11:08:45.809Z,28.30
2023-05-05T11:11:14.457Z,26.83
2023-05-05T11:13:42.658Z,27.49
2023-05-05T11:16:44.967Z,28.44
2023-05-05T11:19:43.697Z,29.37
2023-05-05T11:22:12.434Z,28.39
2023-05-05T11:24:40.906Z,28.33
2023-05-05T11:27:10.451Z,29.01
2023-05-05T11:30:07.588Z,27.82
2023-05-05T11:32:36.405Z,28.53
2023-05-05T11:35:06.408Z,29.90
2023-05-05T11:37:37.488Z,28.51
2023-05-05T11:40:32.820Z,28.39
2023-05-05T11:43:07.669Z,28.81
2023-05-05T11:45:36.140Z,28.90
2023-05-05T11:48:30.100Z,29.70
2023-05-05T11:50:58.367Z,29.51
2023-05-05T11:53:27.723Z,28.62
2023-05-05T11:56:09.796Z,28.73
2023-05-05T11:58:38.489Z,29.05
2023-05-05T12:01:09.547Z,30.54
2023-05-05T12:03:39.451Z,30.88
2023-05-05T12:06:08.365Z,29.43
2023-05-05T12:08:41.124Z,30.13
2023-05-05T12:11:10.854Z,31.10
2023-05-05T12:13:39.061Z,31.20
2023-05-05T12:16:11.270Z,31.10
2023-05-05T12:18:40.198Z,30.13
2023-05-05T12:21:21.075Z,31.02
2023-05-05T12:23:49.291Z,30.55
2023-05-05T12:26:28.260Z,30.34
2023-05-05T12:29:00.583Z,29.31
2023-05-05T12:31:39.660Z,29.77
2023-05-05T12:34:10.053Z,29.73
2023-05-05T12:36:38.638Z,28.52
2023-05-05T12:39:06.952Z,28.63
2023-05-05T12:41:35.244Z,29.00
2023-05-05T12:44:04.219Z,29.00
2023-05-05T12:46:48.916Z,29.50
2023-05-05T12:49:17.802Z,30.64
2023-05-05T12:51:56.736Z,31.75
2023-05-05T12:54:25.289Z,32.17
2023-05-05T12:56:53.227Z,30.62
2023-05-05T12:59:21.745Z,30.58
2023-05-05T13:01:54.177Z,29.81
2023-05-05T13:04:24.349Z,29.89
2023-05-05T13:07:18.111Z,28.91
2023-05-05T13:09:48.249Z,29.14
2023-05-05T13:12:18.105Z,30.21
2023-05-05T13:14:47.250Z,30.02
2023-05-05T13:17:15.285Z,30.19
2023-05-05T13:19:46.632Z,29.79
2023-05-05T13:22:14.719Z,30.89
2023-05-05T13:24:51.706Z,32.04
2023-05-05T13:27:20.842Z,31.40
2023-05-05T13:29:49.183Z,30.88
2023-05-05T13:32:17.066Z,30.58
2023-05-05T13:34:45.307Z,29.60
2023-05-05T13:37:13.123Z,30.33
2023-05-05T13:39:41.415Z,29.00
2023-05-05T13:42:09.383Z,29.04
2023-05-05T13:44:37.614Z,29.06
2023-05-05T13:47:05.797Z,29.48
2023-05-05T13:49:35.391Z,29.44
2023-05-05T13:52:03.421Z,30.00
2023-05-05T13:54:31.868Z,29.77
2023-05-05T13:57:00.225Z,30.06
2023-05-05T13:59:28.738Z,29.88
2023-05-05T14:01:56.619Z,30.22
2023-05-05T14:04:25.230Z,28.89
2023-05-05T14:06:54.206Z,28.59
2023-05-05T14:09:22.555Z,28.79
2023-05-05T14:11:50.427Z,28.81
2023-05-05T14:14:19.912Z,29.59
2023-05-05T14:16:49.993Z,30.29
2023-05-05T14:19:18.874Z,31.15
2023-05-05T14:21:46.833Z,30.22
2023-05-05T14:24:15.161Z,29.14
2023-05-05T14:26:43.085Z,29.36
2023-05-05T14:29:11.397Z,30.83
2023-05-05T14:31:39.312Z,30.39
2023-05-05T14:34:07.585Z,30.69
2023-05-05T14:36:35.517Z,30.42
2023-05-05T14:39:03.873Z,30.56
2023-05-05T14:41:31.785Z,31.10
2023-05-05T14:43:59.997Z,30.30
2023-05-05T14:46:28.122Z,28.97
2023-05-05T14:48:56.442Z,29.62
2023-05-05T14:51:25.128Z,29.76
2023-05-05T14:53:53.020Z,29.76
2023-05-05T14:56:24.772Z,30.04
2023-05-05T14:58:53.191Z,29.49
2023-05-05T15:01:21.471Z,29.89
2023-05-05T15:03:49.498Z,29.88
2023-05-05T15:06:17.726Z,30.28
2023-05-05T15:08:45.695Z,29.55
2023-05-05T15:11:14.030Z,29.39
2023-05-05T15:13:41.944Z,29.61
2023-05-05T15:16:10.568Z,29.94
2023-05-05T15:18:38.589Z,28.75
2023-05-05T15:21:07.315Z,28.31
2023-05-05T15:23:35.266Z,29.12
2023-05-05T15:26:04.890Z,29.39
2023-05-05T15:28:32.770Z,29.07
2023-05-05T15:31:02.349Z,29.79
2023-05-05T15:33:31.257Z,28.86
2023-05-05T15:36:00.591Z,29.66
2023-05-05T15:38:30.012Z,29.28
2023-05-05T15:40:58.326Z,29.55
2023-05-05T15:43:26.295Z,29.59
2023-05-05T15:45:54.740Z,29.42
2023-05-05T15:48:22.636Z,29.43
2023-05-05T15:50:50.791Z,30.09
2023-05-05T15:53:18.718Z,30.38
2023-05-05T15:55:47.018Z,29.72
2023-05-05T15:58:14.960Z,29.30
2023-05-05T16:00:43.204Z,28.86
2023-05-05T16:03:11.175Z,28.06
2023-05-05T16:05:39.422Z,28.07
2023-05-05T16:08:10.357Z,28.61
2023-05-05T16:10:38.727Z,28.15
2023-05-05T16:13:07.048Z,28.41
2023-05-05T16:15:36.054Z,28.15
2023-05-05T16:18:04.143Z,28.33
2023-05-05T16:20:32.498Z,29.09
2023-05-05T16:23:00.547Z,29.13
2023-05-05T16:25:28.843Z,28.83
2023-05-05T16:27:57.845Z,29.01
2023-05-05T16:30:26.238Z,29.40
2023-05-05T16:32:54.845Z,29.62
2023-05-05T16:35:23.331Z,28.55
2023-05-05T16:37:51.408Z,28.37
2023-05-05T16:40:19.920Z,28.17
2023-05-05T16:42:47.759Z,28.38
2023-05-05T16:45:16.245Z,28.27
2023-05-05T16:47:44.121Z,28.79
2023-05-05T16:50:12.726Z,29.20
2023-05-05T16:52:40.791Z,28.71
2023-05-05T16:55:09.716Z,28.96
2023-05-05T16:57:37.792Z,29.13
2023-05-05T17:00:07.560Z,29.05
2023-05-05T17:02:36.154Z,28.77
2023-05-05T17:05:05.222Z,28.53
2023-05-05T17:07:33.199Z,28.81
2023-05-05T17:10:01.902Z,28.12
2023-05-05T17:12:29.808Z,28.26
2023-05-05T17:14:58.001Z,27.95
2023-05-05T17:17:26.093Z,28.18
2023-05-05T17:19:54.396Z,27.78
2023-05-05T17:22:22.447Z,27.50
2023-05-05T17:24:51.143Z,27.73
2023-05-05T17:27:19.178Z,27.37
2023-05-05T17:29:47.330Z,27.53
2023-05-05T17:32:15.239Z,27.69
2023-05-05T17:34:43.506Z,27.86
2023-05-05T17:37:11.560Z,27.64
2023-05-05T17:39:39.772Z,27.77
2023-05-05T17:42:07.801Z,27.75
2023-05-05T17:44:35.951Z,27.36
2023-05-05T17:47:04.153Z,27.53
2023-05-05T17:49:32.644Z,27.73
2023-05-05T17:52:00.855Z,27.39
2023-05-05T17:54:29.179Z,27.40
2023-05-05T17:56:57.594Z,27.30
2023-05-05T17:59:26.396Z,27.06
2023-05-05T18:01:54.293Z,27.18
2023-05-05T18:04:22.533Z,26.90
2023-05-05T18:06:50.465Z,27.12
2023-05-05T18:09:20.853Z,27.16
2023-05-05T18:11:49.124Z,26.67
2023-05-05T18:14:18.752Z,26.69
2023-05-05T18:16:49.962Z,26.89
2023-05-05T18:19:23.454Z,26.82
2023-05-05T18:21:54.657Z,26.75
2023-05-05T18:24:23.322Z,26.72
2023-05-05T18:26:52.854Z,26.56
2023-05-05T18:29:22.362Z,26.64
2023-05-05T18:31:53.211Z,26.75
2023-05-05T18:34:22.009Z,26.52
2023-05-05T18:36:51.572Z,26.43
2023-05-05T18:39:20.444Z,26.35
2023-05-05T18:41:48.373Z,26.27
2023-05-05T18:44:16.860Z,26.00
2023-05-05T18:46:47.059Z,26.08
2023-05-05T18:49:15.741Z,25.90
2023-05-05T18:51:44.038Z,25.86
2023-05-05T18:54:12.534Z,25.93
2023-05-05T18:56:40.457Z,25.84
2023-05-05T18:59:10.057Z,25.92
2023-05-05T19:01:38.209Z,25.97
2023-05-05T19:04:15.609Z,25.83
2023-05-05T19:06:52.526Z,25.95
2023-05-05T19:09:21.070Z,25.93
2023-05-05T19:11:49.275Z,25.87
2023-05-05T19:14:18.726Z,25.98
2023-05-05T19:16:47.943Z,25.86
2023-05-05T19:19:18.139Z,25.86
2023-05-05T19:21:47.271Z,25.86
2023-05-05T19:24:16.801Z,25.74
2023-05-05T19:26:44.981Z,25.91
2023-05-05T19:29:14.296Z,25.74
2023-05-05T19:31:43.498Z,25.90
2023-05-05T19:34:13.170Z,25.97
2023-05-05T19:36:42.256Z,26.18
2023-05-05T19:39:13.694Z,26.10
2023-05-05T19:41:45.597Z,26.17
2023-05-05T19:44:15.266Z,26.07
2023-05-05T19:46:44.504Z,25.92
2023-05-05T19:49:14.046Z,26.25
2023-05-05T19:51:42.919Z,26.09
2023-05-05T19:54:11.844Z,26.25
2023-05-05T19:56:40.605Z,25.89
2023-05-05T19:59:09.463Z,25.85
2023-05-05T20:01:37.465Z,25.91
2023-05-05T20:04:05.811Z,25.97
2023-05-05T20:06:33.978Z,26.09
2023-05-05T20:09:02.479Z,25.99
2023-05-05T20:11:30.674Z,25.84
2023-05-05T20:13:59.489Z,25.55
2023-05-05T20:16:27.609Z,25.41
2023-05-05T20:18:56.322Z,25.76
2023-05-05T20:21:24.303Z,25.47
2023-05-05T20:23:54.928Z,25.16
2023-05-05T20:26:24.748Z,25.49
2023-05-05T20:28:53.249Z,25.08
2023-05-05T20:31:21.295Z,25.41
2023-05-05T20:33:50.059Z,25.27
2023-05-05T20:36:18.710Z,25.26
2023-05-05T20:38:47.056Z,25.26
2023-05-05T20:41:15.131Z,25.31
2023-05-05T20:43:43.666Z,25.14
2023-05-05T20:46:13.032Z,25.00
2023-05-05T20:48:42.925Z,24.72
2023-05-05T20:51:11.530Z,24.63
2023-05-05T20:53:40.000Z,24.44
2023-05-05T20:56:08.952Z,24.34
2023-05-05T20:58:37.949Z,24.50
2023-05-05T21:01:06.275Z,24.53
2023-05-05T21:03:36.618Z,24.53
2023-05-05T21:06:04.706Z,24.39
2023-05-05T21:08:33.176Z,24.23
2023-05-05T21:11:01.130Z,24.25
2023-05-05T21:13:29.505Z,24.18
2023-05-05T21:15:57.520Z,24.43
2023-05-05T21:18:27.906Z,24.41
2023-05-05T21:20:56.459Z,24.13
2023-05-05T21:23:24.967Z,23.88
2023-05-05T21:25:52.878Z,23.95
2023-05-05T21:28:21.242Z,23.67
2023-05-05T21:31:10.346Z,23.68
2023-05-05T21:33:40.172Z,23.60
2023-05-05T21:36:08.490Z,23.59
2023-05-05T21:38:36.849Z,23.76
2023-05-05T21:41:04.805Z,23.58
2023-05-05T21:43:33.470Z,23.46
2023-05-05T21:46:05.605Z,23.85
2023-05-05T21:48:34.165Z,23.82
2023-05-05T21:51:02.147Z,23.62
2023-05-05T21:53:31.100Z,23.46
2023-05-05T21:55:59.244Z,23.43
2023-05-05T21:58:27.836Z,23.35
2023-05-05T22:00:55.848Z,23.36
2023-05-05T22:03:24.446Z,23.48
2023-05-05T22:05:52.599Z,23.61
2023-05-05T22:08:20.951Z,23.44
2023-05-05T22:10:48.868Z,23.21
2023-05-05T22:13:17.403Z,23.19
2023-05-05T22:15:47.397Z,23.13
2023-05-05T22:18:16.394Z,22.99
2023-05-05T22:20:44.559Z,23.11
2023-05-05T22:23:14.438Z,23.13
2023-05-05T22:25:42.477Z,23.16
2023-05-05T22:28:11.761Z,23.07
2023-05-05T22:30:39.802Z,22.80
2023-05-05T22:33:08.260Z,22.84
2023-05-05T22:35:37.591Z,22.84
2023-05-05T22:38:06.636Z,22.83
2023-05-05T22:40:35.668Z,22.74
2023-05-05T22:43:04.094Z,22.92
2023-05-05T22:45:32.049Z,22.92
2023-05-05T22:48:01.029Z,22.94
2023-05-05T22:50:29.181Z,22.92
2023-05-05T22:52:57.489Z,22.88
2023-05-05T22:55:25.474Z,22.76
2023-05-05T22:57:53.982Z,22.83
2023-05-05T23:00:21.941Z,22.84
2023-05-05T23:02:50.347Z,22.95
2023-05-05T23:05:18.328Z,23.16
2023-05-05T23:07:46.626Z,23.11
2023-05-05T23:10:14.588Z,22.91
2023-05-05T23:12:43.203Z,22.92
2023-05-05T23:15:11.665Z,22.70
2023-05-05T23:17:40.293Z,22.86
2023-05-05T23:20:12.011Z,23.03
2023-05-05T23:22:40.290Z,22.89
2023-05-05T23:25:08.854Z,22.97
2023-05-05T23:27:40.377Z,22.69
2023-05-05T23:30:09.485Z,22.64
2023-05-05T23:32:38.056Z,22.74
2023-05-05T23:35:06.522Z,22.54
2023-05-05T23:37:34.794Z,22.62
2023-05-05T23:40:02.762Z,22.71
2023-05-05T23:42:30.925Z,22.72
2023-05-05T23:44:58.877Z,22.54
2023-05-05T23:47:27.206Z,22.42
2023-05-05T23:49:55.174Z,22.49
2023-05-05T23:52:23.702Z,22.36
2023-05-05T23:54:51.639Z,22.53
2023-05-05T23:57:19.860Z,22.41
2023-05-05T23:59:47.941Z,22.23
